sensor_id;sensor_type;location;lat;lon;timestamp;pressure;altitude;pressure_sealevel;temperature;humidity
69455;BME280;56660;51.986;5.930;2022-08-18T00:01:28;101245.78;;;22.04;73.62
69455;BME280;56660;51.986;5.930;2022-08-18T00:03:53;101244.50;;;22.00;73.53
69455;BME280;56660;51.986;5.930;2022-08-18T00:06:23;101252.88;;;21.99;73.54
69455;BME280;56660;51.986;5.930;2022-08-18T00:08:49;101246.16;;;21.95;73.54
69455;BME280;56660;51.986;5.930;2022-08-18T00:11:14;101248.25;;;21.93;73.68
69455;BME280;56660;51.986;5.930;2022-08-18T00:13:40;101246.59;;;21.92;73.72
69455;BME280;56660;51.986;5.930;2022-08-18T00:16:06;101257.47;;;21.92;73.72
69455;BME280;56660;51.986;5.930;2022-08-18T00:18:31;101254.75;;;21.92;73.61
69455;BME280;56660;51.986;5.930;2022-08-18T00:20:57;101259.38;;;21.91;73.61
69455;BME280;56660;51.986;5.930;2022-08-18T00:23:24;101257.69;;;21.90;73.69
69455;BME280;56660;51.986;5.930;2022-08-18T00:25:49;101260.19;;;21.92;73.60
69455;BME280;56660;51.986;5.930;2022-08-18T00:28:15;101259.38;;;21.91;73.70
69455;BME280;56660;51.986;5.930;2022-08-18T00:30:40;101262.50;;;21.88;73.41
69455;BME280;56660;51.986;5.930;2022-08-18T00:33:06;101271.09;;;21.85;73.66
69455;BME280;56660;51.986;5.930;2022-08-18T00:35:34;101265.00;;;21.83;73.53
69455;BME280;56660;51.986;5.930;2022-08-18T00:38:03;101255.38;;;21.80;73.80
69455;BME280;56660;51.986;5.930;2022-08-18T00:40:37;101253.06;;;21.84;73.88
69455;BME280;56660;51.986;5.930;2022-08-18T00:43:11;101259.16;;;21.86;73.72
69455;BME280;56660;51.986;5.930;2022-08-18T00:45:40;101271.72;;;21.87;73.62
69455;BME280;56660;51.986;5.930;2022-08-18T00:48:09;101276.31;;;21.87;73.42
69455;BME280;56660;51.986;5.930;2022-08-18T00:50:39;101271.50;;;21.82;73.53
69455;BME280;56660;51.986;5.930;2022-08-18T00:53:13;101265.44;;;21.80;73.80
69455;BME280;56660;51.986;5.930;2022-08-18T00:55:46;101262.50;;;21.81;73.91
69455;BME280;56660;51.986;5.930;2022-08-18T00:58:19;101268.78;;;21.82;73.90
69455;BME280;56660;51.986;5.930;2022-08-18T01:00:51;101262.09;;;21.85;73.68
69455;BME280;56660;51.986;5.930;2022-08-18T01:03:18;101264.59;;;21.86;73.75
69455;BME280;56660;51.986;5.930;2022-08-18T01:05:48;101270.25;;;21.85;73.70
69455;BME280;56660;51.986;5.930;2022-08-18T01:08:20;101273.38;;;21.81;73.70
69455;BME280;56660;51.986;5.930;2022-08-18T01:10:48;101276.13;;;21.81;73.40
69455;BME280;56660;51.986;5.930;2022-08-18T01:13:15;101276.75;;;21.77;73.39
69455;BME280;56660;51.986;5.930;2022-08-18T01:15:41;101278.19;;;21.73;73.15
69455;BME280;56660;51.986;5.930;2022-08-18T01:18:10;101269.41;;;21.71;73.25
69455;BME280;56660;51.986;5.930;2022-08-18T01:20:42;101269.59;;;21.69;73.35
69455;BME280;56660;51.986;5.930;2022-08-18T01:23:18;101264.38;;;21.68;73.26
69455;BME280;56660;51.986;5.930;2022-08-18T01:25:47;101275.88;;;21.70;73.50
69455;BME280;56660;51.986;5.930;2022-08-18T01:28:13;101275.88;;;21.70;73.38
69455;BME280;56660;51.986;5.930;2022-08-18T01:30:46;101280.50;;;21.69;73.30
69455;BME280;56660;51.986;5.930;2022-08-18T01:33:15;101283.22;;;21.69;73.10
69455;BME280;56660;51.986;5.930;2022-08-18T01:35:42;101291.38;;;21.69;72.96
69455;BME280;56660;51.986;5.930;2022-08-18T01:38:10;101270.22;;;21.65;72.79
69455;BME280;56660;51.986;5.930;2022-08-18T01:40:37;101275.88;;;21.63;72.55
69455;BME280;56660;51.986;5.930;2022-08-18T01:43:03;101274.22;;;21.62;72.75
69455;BME280;56660;51.986;5.930;2022-08-18T01:45:29;101267.94;;;21.62;72.74
69455;BME280;56660;51.986;5.930;2022-08-18T01:47:54;101277.97;;;21.61;72.66
69455;BME280;56660;51.986;5.930;2022-08-18T01:50:21;101274.63;;;21.59;72.66
69455;BME280;56660;51.986;5.930;2022-08-18T01:52:47;101291.16;;;21.58;72.58
69455;BME280;56660;51.986;5.930;2022-08-18T01:55:12;101297.22;;;21.60;72.89
69455;BME280;56660;51.986;5.930;2022-08-18T01:57:39;101293.88;;;21.58;72.69
69455;BME280;56660;51.986;5.930;2022-08-18T02:00:06;101292.00;;;21.58;72.49
69455;BME280;56660;51.986;5.930;2022-08-18T02:02:32;101289.47;;;21.57;72.62
69455;BME280;56660;51.986;5.930;2022-08-18T02:05:02;101293.88;;;21.58;72.56
69455;BME280;56660;51.986;5.930;2022-08-18T02:07:32;101291.56;;;21.55;72.38
69455;BME280;56660;51.986;5.930;2022-08-18T02:10:00;101297.22;;;21.53;72.33
69455;BME280;56660;51.986;5.930;2022-08-18T02:12:29;101290.09;;;21.52;72.33
69455;BME280;56660;51.986;5.930;2022-08-18T02:14:58;101293.88;;;21.51;72.47
69455;BME280;56660;51.986;5.930;2022-08-18T02:17:24;101293.88;;;21.51;72.16
69455;BME280;56660;51.986;5.930;2022-08-18T02:19:49;101290.31;;;21.50;71.82
69455;BME280;56660;51.986;5.930;2022-08-18T02:22:17;101290.09;;;21.45;71.85
69455;BME280;56660;51.986;5.930;2022-08-18T02:24:44;101296.13;;;21.41;71.95
69455;BME280;56660;51.986;5.930;2022-08-18T02:27:12;101291.94;;;21.38;71.73
69455;BME280;56660;51.986;5.930;2022-08-18T02:29:39;101286.50;;;21.38;71.70
69455;BME280;56660;51.986;5.930;2022-08-18T02:32:07;101279.41;;;21.37;71.83
69455;BME280;56660;51.986;5.930;2022-08-18T02:34:33;101282.94;;;21.38;72.00
69455;BME280;56660;51.986;5.930;2022-08-18T02:36:59;101288.59;;;21.36;71.56
69455;BME280;56660;51.986;5.930;2022-08-18T02:39:25;101288.59;;;21.36;71.82
69455;BME280;56660;51.986;5.930;2022-08-18T02:41:51;101287.75;;;21.36;71.78
69455;BME280;56660;51.986;5.930;2022-08-18T02:44:19;101282.53;;;21.34;71.88
69455;BME280;56660;51.986;5.930;2022-08-18T02:46:45;101291.72;;;21.33;72.01
69455;BME280;56660;51.986;5.930;2022-08-18T02:49:18;101295.28;;;21.34;71.95
69455;BME280;56660;51.986;5.930;2022-08-18T02:51:43;101302.19;;;21.30;71.81
69455;BME280;56660;51.986;5.930;2022-08-18T02:54:09;101293.59;;;21.26;71.87
69455;BME280;56660;51.986;5.930;2022-08-18T02:56:35;101303.84;;;21.24;72.07
69455;BME280;56660;51.986;5.930;2022-08-18T02:59:02;101308.03;;;21.27;72.27
69455;BME280;56660;51.986;5.930;2022-08-18T03:01:33;101294.63;;;21.25;72.19
69455;BME280;56660;51.986;5.930;2022-08-18T03:04:00;101293.59;;;21.26;72.06
69455;BME280;56660;51.986;5.930;2022-08-18T03:06:27;101299.03;;;21.26;72.09
69455;BME280;56660;51.986;5.930;2022-08-18T03:08:54;101297.16;;;21.27;72.22
69455;BME280;56660;51.986;5.930;2022-08-18T03:11:23;101300.69;;;21.27;72.29
69455;BME280;56660;51.986;5.930;2022-08-18T03:13:52;101294.84;;;21.30;71.89
69455;BME280;56660;51.986;5.930;2022-08-18T03:16:19;101302.19;;;21.30;72.27
69455;BME280;56660;51.986;5.930;2022-08-18T03:18:44;101314.53;;;21.32;72.03
69455;BME280;56660;51.986;5.930;2022-08-18T03:21:13;101310.13;;;21.31;72.37
69455;BME280;56660;51.986;5.930;2022-08-18T03:23:41;101305.72;;;21.30;72.20
69455;BME280;56660;51.986;5.930;2022-08-18T03:26:08;101306.38;;;21.32;72.10
69455;BME280;56660;51.986;5.930;2022-08-18T03:28:37;101311.81;;;21.32;72.02
69455;BME280;56660;51.986;5.930;2022-08-18T03:31:04;101310.56;;;21.35;72.12
69455;BME280;56660;51.986;5.930;2022-08-18T03:33:29;101311.41;;;21.35;72.18
69455;BME280;56660;51.986;5.930;2022-08-18T03:35:55;101303.25;;;21.35;72.26
69455;BME280;56660;51.986;5.930;2022-08-18T03:38:20;101306.38;;;21.39;71.95
69455;BME280;56660;51.986;5.930;2022-08-18T03:40:50;101301.34;;;21.36;72.27
69455;BME280;56660;51.986;5.930;2022-08-18T03:43:16;101305.13;;;21.35;72.15
69455;BME280;56660;51.986;5.930;2022-08-18T03:45:42;101316.84;;;21.35;72.27
69455;BME280;56660;51.986;5.930;2022-08-18T03:48:07;101308.25;;;21.32;71.95
69455;BME280;56660;51.986;5.930;2022-08-18T03:50:33;101303.84;;;21.31;71.89
69455;BME280;56660;51.986;5.930;2022-08-18T03:52:58;101305.72;;;21.30;71.76
69455;BME280;56660;51.986;5.930;2022-08-18T03:55:25;101314.94;;;21.29;71.81
69455;BME280;56660;51.986;5.930;2022-08-18T03:57:52;101306.97;;;21.28;72.00
69455;BME280;56660;51.986;5.930;2022-08-18T04:00:18;101303.84;;;21.24;71.86
69455;BME280;56660;51.986;5.930;2022-08-18T04:02:43;101301.50;;;21.21;72.08
69455;BME280;56660;51.986;5.930;2022-08-18T04:05:09;101311.16;;;21.24;72.25
69455;BME280;56660;51.986;5.930;2022-08-18T04:07:34;101304.88;;;21.23;72.25
69455;BME280;56660;51.986;5.930;2022-08-18T04:10:00;101301.13;;;21.24;72.24
69455;BME280;56660;51.986;5.930;2022-08-18T04:12:25;101299.22;;;21.25;72.08
69455;BME280;56660;51.986;5.930;2022-08-18T04:14:52;101298.78;;;21.21;71.96
69455;BME280;56660;51.986;5.930;2022-08-18T04:17:19;101307.53;;;21.16;72.01
69455;BME280;56660;51.986;5.930;2022-08-18T04:19:45;101304.38;;;21.13;71.94
69455;BME280;56660;51.986;5.930;2022-08-18T04:22:12;101305.44;;;21.12;71.99
69455;BME280;56660;51.986;5.930;2022-08-18T04:24:38;101292.88;;;21.11;71.99
69455;BME280;56660;51.986;5.930;2022-08-18T04:27:03;101291.19;;;21.10;72.17
69455;BME280;56660;51.986;5.930;2022-08-18T04:29:29;101296.44;;;21.11;72.23
69455;BME280;56660;51.986;5.930;2022-08-18T04:31:59;101302.91;;;21.10;72.11
69455;BME280;56660;51.986;5.930;2022-08-18T04:34:25;101306.47;;;21.11;72.41
69455;BME280;56660;51.986;5.930;2022-08-18T04:36:51;101308.97;;;21.06;72.01
69455;BME280;56660;51.986;5.930;2022-08-18T04:39:16;101309.41;;;21.09;72.39
69455;BME280;56660;51.986;5.930;2022-08-18T04:41:42;101307.94;;;21.13;72.31
69455;BME280;56660;51.986;5.930;2022-08-18T04:44:09;101310.25;;;21.16;72.46
69455;BME280;56660;51.986;5.930;2022-08-18T04:46:38;101319.25;;;21.17;72.27
69455;BME280;56660;51.986;5.930;2022-08-18T04:49:07;101320.94;;;21.18;72.28
69455;BME280;56660;51.986;5.930;2022-08-18T04:51:34;101321.78;;;21.18;72.32
69455;BME280;56660;51.986;5.930;2022-08-18T04:54:00;101318.41;;;21.16;72.46
69455;BME280;56660;51.986;5.930;2022-08-18T04:56:28;101311.50;;;21.14;72.46
69455;BME280;56660;51.986;5.930;2022-08-18T04:58:59;101310.66;;;21.13;72.67
69455;BME280;56660;51.986;5.930;2022-08-18T05:01:30;101309.81;;;21.13;72.69
69455;BME280;56660;51.986;5.930;2022-08-18T05:03:59;101297.28;;;21.12;72.81
69455;BME280;56660;51.986;5.930;2022-08-18T05:06:27;101308.78;;;21.14;72.84
69455;BME280;56660;51.986;5.930;2022-08-18T05:08:57;101302.31;;;21.15;72.82
69455;BME280;56660;51.986;5.930;2022-08-18T05:11:28;101298.53;;;21.16;72.89
69455;BME280;56660;51.986;5.930;2022-08-18T05:13:55;101298.13;;;21.19;72.81
69455;BME280;56660;51.986;5.930;2022-08-18T05:16:21;101296.03;;;21.21;72.85
69455;BME280;56660;51.986;5.930;2022-08-18T05:18:47;101306.34;;;21.26;73.04
69455;BME280;56660;51.986;5.930;2022-08-18T05:21:13;101301.53;;;21.28;72.92
69455;BME280;56660;51.986;5.930;2022-08-18T05:23:42;101313.91;;;21.30;72.77
69455;BME280;56660;51.986;5.930;2022-08-18T05:26:09;101307.63;;;21.30;72.88
69455;BME280;56660;51.986;5.930;2022-08-18T05:28:36;101312.22;;;21.29;72.88
69455;BME280;56660;51.986;5.930;2022-08-18T05:31:06;101314.72;;;21.31;72.90
69455;BME280;56660;51.986;5.930;2022-08-18T05:33:33;101316.22;;;21.33;73.16
69455;BME280;56660;51.986;5.930;2022-08-18T05:36:02;101314.72;;;21.31;72.97
69455;BME280;56660;51.986;5.930;2022-08-18T05:38:44;101317.03;;;21.27;73.08
69455;BME280;56660;51.986;5.930;2022-08-18T05:41:21;101315.56;;;21.25;73.11
69455;BME280;56660;51.986;5.930;2022-08-18T05:43:52;101325.13;;;21.21;73.19
69455;BME280;56660;51.986;5.930;2022-08-18T05:46:21;101318.84;;;21.20;73.31
69455;BME280;56660;51.986;5.930;2022-08-18T05:48:56;101321.00;;;21.25;73.26
69455;BME280;56660;51.986;5.930;2022-08-18T05:51:27;101319.75;;;21.27;73.22
69455;BME280;56660;51.986;5.930;2022-08-18T05:54:01;101314.72;;;21.31;73.29
69455;BME280;56660;51.986;5.930;2022-08-18T05:56:33;101315.19;;;21.41;73.25
69455;BME280;56660;51.986;5.930;2022-08-18T05:59:04;101318.97;;;21.46;73.02
69455;BME280;56660;51.986;5.930;2022-08-18T06:01:37;101326.09;;;21.54;73.11
69455;BME280;56660;51.986;5.930;2022-08-18T06:04:12;101327.19;;;21.66;73.18
69455;BME280;56660;51.986;5.930;2022-08-18T06:06:46;101333.91;;;21.77;72.89
69455;BME280;56660;51.986;5.930;2022-08-18T06:09:19;101339.34;;;21.83;72.82
69455;BME280;56660;51.986;5.930;2022-08-18T06:11:52;101339.16;;;21.85;72.46
69455;BME280;56660;51.986;5.930;2022-08-18T06:14:27;101346.28;;;21.93;72.16
69455;BME280;56660;51.986;5.930;2022-08-18T06:17:10;101349.84;;;21.93;71.79
69455;BME280;56660;51.986;5.930;2022-08-18T06:19:51;101351.94;;;21.91;71.67
69455;BME280;56660;51.986;5.930;2022-08-18T06:22:31;101342.94;;;21.91;71.75
69455;BME280;56660;51.986;5.930;2022-08-18T06:25:13;101348.38;;;21.97;71.75
69455;BME280;56660;51.986;5.930;2022-08-18T06:27:52;101350.47;;;22.02;71.68
69455;BME280;56660;51.986;5.930;2022-08-18T06:30:39;101346.75;;;22.03;71.76
69455;BME280;56660;51.986;5.930;2022-08-18T06:33:25;101348.84;;;22.07;72.02
69455;BME280;56660;51.986;5.930;2022-08-18T06:36:12;101351.56;;;22.21;71.55
69455;BME280;56660;51.986;5.930;2022-08-18T06:38:52;101349.69;;;22.28;71.52
69455;BME280;56660;51.986;5.930;2022-08-18T06:41:35;101346.53;;;22.37;71.88
69455;BME280;56660;51.986;5.930;2022-08-18T06:44:09;101359.72;;;22.47;71.00
69455;BME280;56660;51.986;5.930;2022-08-18T06:46:47;101365.59;;;22.51;70.56
69455;BME280;56660;51.986;5.930;2022-08-18T06:49:27;101365.81;;;22.49;70.84
69455;BME280;56660;51.986;5.930;2022-08-18T06:52:19;101371.25;;;22.56;70.96
69455;BME280;56660;51.986;5.930;2022-08-18T06:54:47;101361.81;;;22.58;70.24
69455;BME280;56660;51.986;5.930;2022-08-18T06:57:24;101367.06;;;22.66;69.82
69455;BME280;56660;51.986;5.930;2022-08-18T06:59:55;101368.50;;;22.69;69.52
69455;BME280;56660;51.986;5.930;2022-08-18T07:02:25;101376.47;;;22.77;69.53
69455;BME280;56660;51.986;5.930;2022-08-18T07:05:14;101372.28;;;22.74;69.33
69455;BME280;56660;51.986;5.930;2022-08-18T07:07:42;101373.34;;;22.73;69.24
69455;BME280;56660;51.986;5.930;2022-08-18T07:10:28;101367.25;;;22.78;68.71
69455;BME280;56660;51.986;5.930;2022-08-18T07:13:17;101370.19;;;22.83;69.00
69455;BME280;56660;51.986;5.930;2022-08-18T07:15:46;101375.44;;;22.91;69.39
69455;BME280;56660;51.986;5.930;2022-08-18T07:18:14;101375.59;;;23.03;68.78
69455;BME280;56660;51.986;5.930;2022-08-18T07:20:48;101378.13;;;23.04;68.44
69455;BME280;56660;51.986;5.930;2022-08-18T07:23:33;101373.09;;;23.01;68.13
69455;BME280;56660;51.986;5.930;2022-08-18T07:26:06;101379.81;;;22.99;68.11
69455;BME280;56660;51.986;5.930;2022-08-18T07:28:39;101365.97;;;23.00;67.88
69455;BME280;56660;51.986;5.930;2022-08-18T07:31:31;101369.72;;;23.06;67.79
69455;BME280;56660;51.986;5.930;2022-08-18T07:34:07;101364.25;;;23.06;67.61
69455;BME280;56660;51.986;5.930;2022-08-18T07:36:41;101359.84;;;23.05;67.31
69455;BME280;56660;51.986;5.930;2022-08-18T07:39:19;101365.13;;;23.00;67.72
69455;BME280;56660;51.986;5.930;2022-08-18T07:41:51;101363.25;;;22.94;67.62
69455;BME280;56660;51.986;5.930;2022-08-18T07:44:28;101362.19;;;22.95;67.80
69455;BME280;56660;51.986;5.930;2022-08-18T07:47:06;101364.50;;;22.98;67.60
69455;BME280;56660;51.986;5.930;2022-08-18T07:49:41;101373.09;;;23.01;68.07
69455;BME280;56660;51.986;5.930;2022-08-18T07:52:15;101381.84;;;23.17;67.78
69455;BME280;56660;51.986;5.930;2022-08-18T07:54:51;101378.44;;;23.34;68.57
69455;BME280;56660;51.986;5.930;2022-08-18T07:57:36;101371.06;;;23.55;67.74
69455;BME280;56660;51.986;5.930;2022-08-18T08:00:15;101385.44;;;23.75;67.26
69455;BME280;56660;51.986;5.930;2022-08-18T08:02:55;101375.75;;;23.79;66.64
69455;BME280;56660;51.986;5.930;2022-08-18T08:05:44;101389.13;;;23.87;65.49
69455;BME280;56660;51.986;5.930;2022-08-18T08:08:24;101391.84;;;23.94;65.21
69455;BME280;56660;51.986;5.930;2022-08-18T08:11:06;101389.06;;;24.00;64.60
69455;BME280;56660;51.986;5.930;2022-08-18T08:13:52;101393.63;;;24.07;64.05
69455;BME280;56660;51.986;5.930;2022-08-18T08:16:39;101383.78;;;24.05;64.58
69455;BME280;56660;51.986;5.930;2022-08-18T08:22:18;101370.19;;;23.92;63.88
69455;BME280;56660;51.986;5.930;2022-08-18T08:24:54;101384.47;;;23.94;64.23
69455;BME280;56660;51.986;5.930;2022-08-18T08:27:37;101381.31;;;23.97;64.52
69455;BME280;56660;51.986;5.930;2022-08-18T08:30:17;101387.34;;;24.06;64.52
69455;BME280;56660;51.986;5.930;2022-08-18T08:32:58;101384.28;;;24.21;64.14
69455;BME280;56660;51.986;5.930;2022-08-18T08:35:35;101386.09;;;24.33;64.08
69455;BME280;56660;51.986;5.930;2022-08-18T08:38:11;101375.91;;;24.47;63.72
69455;BME280;56660;51.986;5.930;2022-08-18T08:40:48;101377.91;;;24.58;63.06
69455;BME280;56660;51.986;5.930;2022-08-18T08:43:21;101377.38;;;24.68;62.23
69455;BME280;56660;51.986;5.930;2022-08-18T08:46:03;101378.94;;;24.82;61.81
69455;BME280;56660;51.986;5.930;2022-08-18T08:48:42;101372.47;;;24.95;60.88
69455;BME280;56660;51.986;5.930;2022-08-18T08:51:27;101370.53;;;25.02;60.57
69455;BME280;56660;51.986;5.930;2022-08-18T08:54:04;101371.75;;;25.06;60.83
69455;BME280;56660;51.986;5.930;2022-08-18T08:56:43;101373.41;;;25.25;60.55
69455;BME280;56660;51.986;5.930;2022-08-18T08:59:14;101380.25;;;25.35;60.58
69455;BME280;56660;51.986;5.930;2022-08-18T09:01:43;101384.06;;;25.33;59.71
69455;BME280;56660;51.986;5.930;2022-08-18T09:04:29;101386.03;;;25.26;60.87
69455;BME280;56660;51.986;5.930;2022-08-18T09:07:14;101384.97;;;25.27;61.08
69455;BME280;56660;51.986;5.930;2022-08-18T09:10:19;101380.56;;;25.26;61.06
69455;BME280;56660;51.986;5.930;2022-08-18T09:13:11;101383.00;;;25.16;60.61
69455;BME280;56660;51.986;5.930;2022-08-18T09:16:07;101385.50;;;25.18;61.52
69455;BME280;56660;51.986;5.930;2022-08-18T09:18:55;101396.44;;;25.36;61.61
69455;BME280;56660;51.986;5.930;2022-08-18T09:21:42;101389.50;;;25.52;61.12
69455;BME280;56660;51.986;5.930;2022-08-18T09:24:17;101389.66;;;25.57;60.75
69455;BME280;56660;51.986;5.930;2022-08-18T09:26:50;101385.84;;;25.58;60.75
69455;BME280;56660;51.986;5.930;2022-08-18T09:29:20;101380.09;;;25.66;61.15
69455;BME280;56660;51.986;5.930;2022-08-18T09:35:25;101387.81;;;25.99;60.23
69455;BME280;56660;51.986;5.930;2022-08-18T09:38:09;101380.50;;;26.11;59.67
69455;BME280;56660;51.986;5.930;2022-08-18T09:40:45;101388.84;;;26.16;58.46
69455;BME280;56660;51.986;5.930;2022-08-18T09:43:16;101390.16;;;26.14;57.61
69455;BME280;56660;51.986;5.930;2022-08-18T09:45:57;101394.91;;;26.07;57.91
69455;BME280;56660;51.986;5.930;2022-08-18T09:48:30;101395.22;;;25.99;57.22
69455;BME280;56660;51.986;5.930;2022-08-18T09:51:15;101386.72;;;25.88;58.01
69455;BME280;56660;51.986;5.930;2022-08-18T09:54:18;101381.09;;;25.83;57.75
69455;BME280;56660;51.986;5.930;2022-08-18T10:00:15;101373.81;;;25.77;57.71
69455;BME280;56660;51.986;5.930;2022-08-18T10:03:12;101376.47;;;25.84;57.92
69455;BME280;56660;51.986;5.930;2022-08-18T10:06:05;101381.38;;;25.93;57.11
69455;BME280;56660;51.986;5.930;2022-08-18T10:12:07;101391.56;;;26.05;58.13
69455;BME280;56660;51.986;5.930;2022-08-18T10:15:00;101377.53;;;26.13;58.16
69455;BME280;56660;51.986;5.930;2022-08-18T10:17:47;101384.69;;;26.25;57.80
69455;BME280;56660;51.986;5.930;2022-08-18T10:20:37;101386.00;;;26.23;56.63
69455;BME280;56660;51.986;5.930;2022-08-18T10:23:06;101385.41;;;26.21;56.99
69455;BME280;56660;51.986;5.930;2022-08-18T10:25:37;101381.56;;;26.10;56.95
69455;BME280;56660;51.986;5.930;2022-08-18T10:28:06;101378.34;;;26.13;57.29
69455;BME280;56660;51.986;5.930;2022-08-18T10:30:59;101370.03;;;26.20;57.26
69455;BME280;56660;51.986;5.930;2022-08-18T10:36:36;101370.03;;;26.20;57.73
69455;BME280;56660;51.986;5.930;2022-08-18T10:39:10;101375.16;;;26.28;57.35
69455;BME280;56660;51.986;5.930;2022-08-18T10:41:48;101369.38;;;26.48;57.94
69455;BME280;56660;51.986;5.930;2022-08-18T10:44:23;101364.72;;;26.72;58.23
69455;BME280;56660;51.986;5.930;2022-08-18T10:46:51;101376.63;;;27.12;58.55
69455;BME280;56660;51.986;5.930;2022-08-18T10:49:21;101384.16;;;27.57;55.77
69455;BME280;56660;51.986;5.930;2022-08-18T10:52:26;101379.47;;;27.69;54.26
69455;BME280;56660;51.986;5.930;2022-08-18T10:55:27;101370.66;;;27.55;54.67
69455;BME280;56660;51.986;5.930;2022-08-18T10:58:15;101382.38;;;27.51;55.37
69455;BME280;56660;51.986;5.930;2022-08-18T11:01:05;101383.00;;;27.41;54.81
69455;BME280;56660;51.986;5.930;2022-08-18T11:03:47;101381.03;;;27.25;54.91
69455;BME280;56660;51.986;5.930;2022-08-18T11:06:25;101384.75;;;27.07;55.00
69455;BME280;56660;51.986;5.930;2022-08-18T11:08:54;101386.91;;;26.94;54.50
69455;BME280;56660;51.986;5.930;2022-08-18T11:11:24;101387.88;;;26.76;55.59
69455;BME280;56660;51.986;5.930;2022-08-18T11:14:07;101385.72;;;26.66;55.54
69455;BME280;56660;51.986;5.930;2022-08-18T11:16:50;101382.97;;;26.54;55.43
69455;BME280;56660;51.986;5.930;2022-08-18T11:19:35;101379.25;;;26.37;55.67
69455;BME280;56660;51.986;5.930;2022-08-18T11:22:04;101377.53;;;26.24;55.83
69455;BME280;56660;51.986;5.930;2022-08-18T11:24:31;101379.91;;;26.21;56.58
69455;BME280;56660;51.986;5.930;2022-08-18T11:26:59;101369.44;;;26.18;56.30
69455;BME280;56660;51.986;5.930;2022-08-18T11:29:30;101374.44;;;26.21;56.99
69455;BME280;56660;51.986;5.930;2022-08-18T11:32:03;101372.78;;;26.20;56.83
69455;BME280;56660;51.986;5.930;2022-08-18T11:34:37;101369.66;;;26.16;55.77
69455;BME280;56660;51.986;5.930;2022-08-18T11:37:15;101362.16;;;26.12;56.80
69455;BME280;56660;51.986;5.930;2022-08-18T11:39:49;101363.22;;;26.11;56.68
69455;BME280;56660;51.986;5.930;2022-08-18T11:42:19;101353.94;;;26.12;56.39
69455;BME280;56660;51.986;5.930;2022-08-18T11:44:54;101358.22;;;26.08;56.22
69455;BME280;56660;51.986;5.930;2022-08-18T11:47:28;101363.69;;;26.08;56.61
69455;BME280;56660;51.986;5.930;2022-08-18T11:49:57;101351.06;;;26.07;55.80
69455;BME280;56660;51.986;5.930;2022-08-18T11:52:46;101354.16;;;26.10;55.93
69455;BME280;56660;51.986;5.930;2022-08-18T11:55:19;101351.78;;;26.14;56.55
69455;BME280;56660;51.986;5.930;2022-08-18T11:57:52;101348.56;;;26.17;55.89
69455;BME280;56660;51.986;5.930;2022-08-18T12:00:51;101349.19;;;26.31;55.74
69455;BME280;56660;51.986;5.930;2022-08-18T12:03:26;101336.69;;;26.35;56.13
69455;BME280;56660;51.986;5.930;2022-08-18T12:05:56;101333.72;;;26.48;56.22
69455;BME280;56660;51.986;5.930;2022-08-18T12:08:31;101335.97;;;26.63;56.25
69455;BME280;56660;51.986;5.930;2022-08-18T12:11:04;101327.63;;;26.69;54.91
69455;BME280;56660;51.986;5.930;2022-08-18T12:13:39;101329.66;;;26.74;55.73
69455;BME280;56660;51.986;5.930;2022-08-18T12:16:30;101320.56;;;26.85;55.11
69455;BME280;56660;51.986;5.930;2022-08-18T12:18:59;101320.56;;;26.85;55.06
69455;BME280;56660;51.986;5.930;2022-08-18T12:21:26;101322.84;;;26.88;55.25
69455;BME280;56660;51.986;5.930;2022-08-18T12:23:52;101329.03;;;26.83;54.27
69455;BME280;56660;51.986;5.930;2022-08-18T12:26:19;101329.53;;;26.80;54.11
69455;BME280;56660;51.986;5.930;2022-08-18T12:28:45;101332.03;;;26.82;54.75
69455;BME280;56660;51.986;5.930;2022-08-18T12:31:20;101341.22;;;26.87;54.87
69455;BME280;56660;51.986;5.930;2022-08-18T12:33:47;101337.16;;;26.90;54.24
69455;BME280;56660;51.986;5.930;2022-08-18T12:36:13;101336.91;;;26.91;54.24
69455;BME280;56660;51.986;5.930;2022-08-18T12:38:40;101330.09;;;26.94;54.42
69455;BME280;56660;51.986;5.930;2022-08-18T12:41:08;101330.84;;;27.01;55.22
69455;BME280;56660;51.986;5.930;2022-08-18T12:43:34;101337.38;;;27.12;53.24
69455;BME280;56660;51.986;5.930;2022-08-18T12:46:00;101333.31;;;27.14;53.61
69455;BME280;56660;51.986;5.930;2022-08-18T12:48:29;101318.47;;;27.27;52.50
69455;BME280;56660;51.986;5.930;2022-08-18T12:50:55;101328.59;;;27.27;51.43
69455;BME280;56660;51.986;5.930;2022-08-18T12:53:20;101322.81;;;27.11;51.17
69455;BME280;56660;51.986;5.930;2022-08-18T12:55:47;101331.31;;;26.98;51.74
69455;BME280;56660;51.986;5.930;2022-08-18T12:58:12;101329.75;;;26.90;52.60
69455;BME280;56660;51.986;5.930;2022-08-18T13:00:38;101329.63;;;26.85;52.83
69455;BME280;56660;51.986;5.930;2022-08-18T13:03:04;101330.34;;;26.81;53.73
69455;BME280;56660;51.986;5.930;2022-08-18T13:05:31;101343.50;;;26.79;53.91
69455;BME280;56660;51.986;5.930;2022-08-18T13:08:00;101350.88;;;26.78;53.96
69455;BME280;56660;51.986;5.930;2022-08-18T13:10:28;101354.09;;;26.75;53.97
69455;BME280;56660;51.986;5.930;2022-08-18T13:12:54;101346.34;;;26.72;53.93
69455;BME280;56660;51.986;5.930;2022-08-18T13:15:19;101358.16;;;26.73;54.12
69455;BME280;56660;51.986;5.930;2022-08-18T13:17:53;101357.09;;;26.74;54.22
69455;BME280;56660;51.986;5.930;2022-08-18T13:20:18;101369.13;;;26.73;54.17
69455;BME280;56660;51.986;5.930;2022-08-18T13:22:48;101370.22;;;26.72;55.12
69455;BME280;56660;51.986;5.930;2022-08-18T13:25:20;101378.69;;;26.70;54.03
69455;BME280;56660;51.986;5.930;2022-08-18T13:27:46;101361.88;;;26.67;53.96
69455;BME280;56660;51.986;5.930;2022-08-18T13:30:14;101367.81;;;26.64;53.88
69455;BME280;56660;51.986;5.930;2022-08-18T13:32:41;101368.91;;;26.63;53.76
69455;BME280;56660;51.986;5.930;2022-08-18T13:35:08;101369.97;;;26.62;54.08